createdAt,value
2022-08-29T00:01:11.395Z,20.75
2022-08-29T00:03:39.726Z,20.76
2022-08-29T00:06:09.202Z,20.82
2022-08-29T00:08:37.176Z,20.84
2022-08-29T00:11:06.685Z,20.88
2022-08-29T00:13:36.149Z,20.94
2022-08-29T00:16:04.564Z,21.02
2022-08-29T00:18:33.321Z,21.09
2022-08-29T00:21:01.359Z,21.13
2022-08-29T00:23:29.870Z,21.17
2022-08-29T00:25:57.827Z,21.16
2022-08-29T00:28:25.835Z,21.16
2022-08-29T00:30:55.306Z,21.18
2022-08-29T00:33:23.296Z,21.20
2022-08-29T00:35:51.292Z,21.20
2022-08-29T00:38:19.466Z,21.20
2022-08-29T00:40:51.616Z,21.10
2022-08-29T00:43:21.779Z,21.19
2022-08-29T00:45:52.746Z,21.10
2022-08-29T00:48:22.233Z,21.14
2022-08-29T00:50:54.706Z,21.09
2022-08-29T00:53:25.587Z,21.03
2022-08-29T00:55:55.284Z,21.01
2022-08-29T00:58:25.661Z,20.97
2022-08-29T01:00:53.793Z,20.95
2022-08-29T01:03:23.257Z,20.93
2022-08-29T01:05:51.471Z,20.90
2022-08-29T01:08:19.478Z,20.88
2022-08-29T01:11:04.685Z,20.85
2022-08-29T01:13:35.262Z,20.81
2022-08-29T01:16:03.946Z,20.80
2022-08-29T01:18:33.739Z,20.80
2022-08-29T01:21:04.731Z,20.71
2022-08-29T01:23:35.311Z,20.76
2022-08-29T01:26:05.024Z,20.72
2022-08-29T01:28:34.412Z,20.69
2022-08-29T01:31:05.236Z,20.66
2022-08-29T01:33:39.736Z,20.65
2022-08-29T01:36:08.215Z,20.61
2022-08-29T01:38:36.241Z,20.59
2022-08-29T01:41:05.658Z,20.58
2022-08-29T01:43:39.041Z,20.58
2022-08-29T01:46:08.629Z,20.57
2022-08-29T01:48:38.384Z,20.57
2022-08-29T01:51:06.740Z,20.57
2022-08-29T01:53:34.783Z,20.59
2022-08-29T01:56:11.951Z,20.60
2022-08-29T01:58:39.997Z,20.61
2022-08-29T02:01:08.309Z,20.63
2022-08-29T02:03:36.497Z,20.64
2022-08-29T02:06:04.753Z,20.67
2022-08-29T02:08:32.814Z,20.69
2022-08-29T02:11:00.845Z,20.72
2022-08-29T02:13:30.244Z,20.75
2022-08-29T02:15:58.294Z,20.78
2022-08-29T02:18:26.355Z,20.79
2022-08-29T02:20:54.327Z,20.78
2022-08-29T02:23:30.846Z,20.78
2022-08-29T02:25:59.564Z,20.78
2022-08-29T02:28:29.095Z,20.76
2022-08-29T02:30:57.275Z,20.75
2022-08-29T02:33:25.569Z,20.73
2022-08-29T02:35:53.669Z,20.71
2022-08-29T02:38:21.789Z,20.68
2022-08-29T02:40:50.393Z,20.63
2022-08-29T02:43:19.547Z,20.59
2022-08-29T02:45:49.024Z,20.54
2022-08-29T02:48:17.939Z,20.50
2022-08-29T02:50:48.816Z,20.47
2022-08-29T02:53:17.834Z,20.45
2022-08-29T02:55:46.144Z,20.43
2022-08-29T02:58:14.754Z,20.43
2022-08-29T03:00:42.939Z,20.42
2022-08-29T03:03:12.444Z,20.43
2022-08-29T03:05:40.649Z,20.42
2022-08-29T03:08:09.977Z,20.42
2022-08-29T03:10:38.146Z,20.40
2022-08-29T03:13:06.227Z,20.40
2022-08-29T03:15:34.212Z,20.39
2022-08-29T03:18:02.398Z,20.39
2022-08-29T03:20:31.852Z,20.38
2022-08-29T03:22:59.805Z,20.33
2022-08-29T03:25:27.744Z,20.33
2022-08-29T03:27:55.719Z,20.29
2022-08-29T03:30:23.901Z,20.26
2022-08-29T03:32:52.154Z,19.98
2022-08-29T03:35:20.197Z,20.21
2022-08-29T03:37:49.625Z,20.18
2022-08-29T03:40:19.016Z,20.14
2022-08-29T03:42:47.664Z,20.10
2022-08-29T03:45:16.500Z,20.06
2022-08-29T03:47:44.470Z,20.04
2022-08-29T03:50:13.112Z,20.01
2022-08-29T03:52:43.250Z,19.96
2022-08-29T03:55:12.792Z,19.92
2022-08-29T03:57:40.766Z,19.87
2022-08-29T04:00:16.170Z,19.84
2022-08-29T04:02:45.450Z,19.82
2022-08-29T04:05:13.727Z,19.79
2022-08-29T04:07:44.071Z,19.75
2022-08-29T04:10:14.424Z,19.71
2022-08-29T04:12:42.435Z,19.67
2022-08-29T04:15:10.790Z,19.64
2022-08-29T04:17:52.750Z,19.62
2022-08-29T04:20:25.085Z,19.60
2022-08-29T04:22:54.172Z,19.58
2022-08-29T04:25:24.926Z,19.57
2022-08-29T04:27:53.038Z,19.55
2022-08-29T04:30:23.058Z,19.54
2022-08-29T04:32:51.153Z,19.53
2022-08-29T04:35:19.351Z,19.53
2022-08-29T04:37:47.370Z,19.51
2022-08-29T04:40:17.561Z,19.50
2022-08-29T04:42:47.354Z,19.49
2022-08-29T04:45:17.970Z,19.47
2022-08-29T04:47:45.979Z,19.48
2022-08-29T04:50:15.372Z,19.48
2022-08-29T04:52:43.922Z,19.48
2022-08-29T04:55:12.583Z,19.48
2022-08-29T04:57:40.754Z,19.46
2022-08-29T05:00:12.852Z,19.45
2022-08-29T05:02:41.181Z,19.43
2022-08-29T05:05:10.079Z,19.41
2022-08-29T05:07:38.187Z,19.40
2022-08-29T05:10:09.345Z,19.41
2022-08-29T05:12:37.487Z,19.41
2022-08-29T05:15:05.852Z,19.42
2022-08-29T05:17:35.269Z,19.42
2022-08-29T05:20:05.071Z,19.41
2022-08-29T05:22:33.308Z,19.41
2022-08-29T05:25:01.317Z,19.40
2022-08-29T05:27:29.355Z,19.37
2022-08-29T05:29:58.495Z,19.37
2022-08-29T05:32:26.683Z,19.37
2022-08-29T05:34:56.684Z,19.34
2022-08-29T05:37:24.781Z,19.33
2022-08-29T05:39:52.803Z,19.34
2022-08-29T05:42:22.110Z,19.33
2022-08-29T05:44:50.233Z,19.35
2022-08-29T05:47:19.050Z,19.35
2022-08-29T05:49:47.409Z,19.27
2022-08-29T05:52:18.189Z,19.42
2022-08-29T05:54:46.533Z,19.45
2022-08-29T05:57:18.964Z,19.47
2022-08-29T05:59:47.632Z,19.47
2022-08-29T06:02:15.898Z,19.54
2022-08-29T06:04:44.008Z,19.58
2022-08-29T06:07:12.059Z,19.61
2022-08-29T06:09:42.130Z,19.67
2022-08-29T06:12:10.233Z,19.72
2022-08-29T06:14:38.352Z,19.77
2022-08-29T06:17:08.655Z,19.83
2022-08-29T06:19:37.576Z,19.86
2022-08-29T06:22:09.721Z,19.88
2022-08-29T06:24:38.875Z,19.89
2022-08-29T06:27:08.348Z,19.98
2022-08-29T06:29:43.169Z,20.03
2022-08-29T06:32:11.910Z,20.11
2022-08-29T06:34:40.034Z,20.20
2022-08-29T06:37:08.041Z,20.30
2022-08-29T06:39:36.019Z,20.39
2022-08-29T06:42:04.090Z,20.50
2022-08-29T06:44:33.555Z,20.56
2022-08-29T06:47:01.553Z,20.66
2022-08-29T06:49:29.765Z,20.66
2022-08-29T06:51:58.745Z,20.85
2022-08-29T06:54:28.437Z,20.96
2022-08-29T06:56:56.766Z,21.05
2022-08-29T06:59:24.828Z,21.15
2022-08-29T07:01:55.138Z,21.24
2022-08-29T07:04:23.247Z,21.34
2022-08-29T07:06:54.810Z,21.43
2022-08-29T07:09:22.815Z,21.52
2022-08-29T07:11:50.912Z,21.62
2022-08-29T07:14:18.909Z,21.72
2022-08-29T07:16:46.957Z,21.81
2022-08-29T07:19:16.485Z,21.84
2022-08-29T07:21:44.604Z,21.99
2022-08-29T07:24:13.510Z,22.08
2022-08-29T07:26:42.810Z,22.16
2022-08-29T07:29:12.708Z,22.24
2022-08-29T07:31:40.771Z,22.35
2022-08-29T07:34:08.876Z,22.44
2022-08-29T07:36:38.451Z,22.51
2022-08-29T07:39:08.399Z,22.59
2022-08-29T07:41:36.444Z,22.67
2022-08-29T07:44:04.990Z,22.74
2022-08-29T07:46:33.127Z,22.82
2022-08-29T07:49:01.245Z,22.83
2022-08-29T07:51:29.407Z,22.96
2022-08-29T07:53:59.081Z,23.04
2022-08-29T07:56:28.309Z,23.12
2022-08-29T07:58:56.505Z,23.18
2022-08-29T08:01:24.861Z,23.28
2022-08-29T08:03:53.014Z,23.38
2022-08-29T08:06:21.294Z,23.44
2022-08-29T08:08:49.605Z,23.55
2022-08-29T08:11:19.289Z,23.54
2022-08-29T08:13:47.359Z,23.48
2022-08-29T08:16:16.163Z,23.77
2022-08-29T08:18:44.561Z,23.87
2022-08-29T08:21:12.755Z,23.93
2022-08-29T08:23:41.019Z,24.02
2022-08-29T08:26:09.490Z,24.12
2022-08-29T08:28:39.021Z,24.23
2022-08-29T08:31:08.196Z,24.31
2022-08-29T08:33:38.775Z,24.39
2022-08-29T08:36:12.733Z,24.41
2022-08-29T08:38:40.790Z,24.52
2022-08-29T08:41:11.308Z,24.55
2022-08-29T08:43:47.307Z,24.61
2022-08-29T08:46:15.558Z,24.65
2022-08-29T08:48:43.599Z,24.70
2022-08-29T08:51:15.290Z,24.79
2022-08-29T08:53:44.678Z,24.85
2022-08-29T08:56:17.688Z,24.88
2022-08-29T08:58:51.001Z,24.99
2022-08-29T09:01:21.869Z,25.02
2022-08-29T09:04:04.115Z,25.06
2022-08-29T09:06:46.112Z,25.14
2022-08-29T09:09:18.898Z,25.21
2022-08-29T09:11:55.567Z,25.27
2022-08-29T09:14:35.503Z,25.29
2022-08-29T09:17:03.523Z,25.32
2022-08-29T09:19:31.532Z,25.38
2022-08-29T09:22:01.163Z,25.44
2022-08-29T09:24:40.421Z,25.49
2022-08-29T09:27:26.820Z,25.56
2022-08-29T09:30:02.609Z,25.58
2022-08-29T09:32:30.710Z,25.63
2022-08-29T09:35:15.189Z,25.69
2022-08-29T09:37:43.412Z,25.82
2022-08-29T09:40:12.911Z,25.88
2022-08-29T09:42:45.403Z,25.94
2022-08-29T09:45:20.565Z,25.97
2022-08-29T09:47:48.679Z,26.03
2022-08-29T09:50:24.664Z,26.11
2022-08-29T09:52:53.591Z,26.16
2022-08-29T09:55:28.930Z,26.20
2022-08-29T09:57:58.782Z,26.26
2022-08-29T10:00:29.999Z,26.35
2022-08-29T10:02:59.944Z,26.39
2022-08-29T10:05:31.355Z,26.50
2022-08-29T10:07:59.425Z,26.57
2022-08-29T10:10:28.691Z,26.64
2022-08-29T10:12:58.987Z,26.68
2022-08-29T10:15:49.387Z,26.76
2022-08-29T10:18:21.580Z,26.83
2022-08-29T10:20:54.340Z,26.91
2022-08-29T10:26:26.350Z,27.00
2022-08-29T10:28:57.792Z,27.15
2022-08-29T10:31:31.997Z,27.17
2022-08-29T10:34:08.173Z,27.28
2022-08-29T10:36:37.968Z,27.34
2022-08-29T10:39:14.073Z,27.39
2022-08-29T10:41:50.427Z,27.47
2022-08-29T10:44:25.877Z,27.51
2022-08-29T10:47:01.955Z,27.60
2022-08-29T10:49:41.836Z,27.67
2022-08-29T10:52:16.090Z,27.76
2022-08-29T10:54:49.907Z,27.84
2022-08-29T10:57:24.096Z,27.99
2022-08-29T10:59:56.475Z,28.14
2022-08-29T11:02:28.562Z,28.25
2022-08-29T11:04:57.752Z,28.30
2022-08-29T11:07:29.643Z,28.41
2022-08-29T11:10:00.819Z,28.36
2022-08-29T11:12:33.387Z,28.56
2022-08-29T11:15:03.410Z,28.68
2022-08-29T11:17:35.900Z,28.91
2022-08-29T11:20:09.645Z,28.90
2022-08-29T11:22:41.366Z,28.64
2022-08-29T11:25:11.103Z,28.75
2022-08-29T11:27:45.082Z,29.03
2022-08-29T11:30:17.565Z,29.40
2022-08-29T11:32:52.522Z,29.85
2022-08-29T11:35:23.269Z,30.29
2022-08-29T11:38:17.663Z,30.62
2022-08-29T11:43:46.053Z,31.31
2022-08-29T11:46:15.226Z,31.38
2022-08-29T11:48:46.265Z,31.59
2022-08-29T11:51:36.133Z,31.78
2022-08-29T11:54:42.407Z,31.96
2022-08-29T11:57:53.177Z,32.18
2022-08-29T12:00:51.688Z,32.01
2022-08-29T12:03:54.994Z,31.88
2022-08-29T12:06:27.849Z,31.67
2022-08-29T12:09:02.864Z,31.58
2022-08-29T12:12:10.442Z,31.64
2022-08-29T12:14:39.098Z,31.54
2022-08-29T12:17:08.247Z,31.51
2022-08-29T12:19:53.332Z,31.67
2022-08-29T12:22:46.696Z,31.90
2022-08-29T12:25:55.211Z,31.91
2022-08-29T12:28:48.167Z,31.79
2022-08-29T12:31:51.369Z,31.65
2022-08-29T12:34:39.573Z,31.94
2022-08-29T12:37:30.821Z,32.40
2022-08-29T12:40:11.329Z,32.83
2022-08-29T12:42:42.862Z,32.94
2022-08-29T12:45:13.786Z,33.04
2022-08-29T12:47:45.840Z,33.14
2022-08-29T12:50:16.613Z,33.34
2022-08-29T12:52:59.210Z,33.51
2022-08-29T12:55:29.499Z,33.75
2022-08-29T12:57:58.331Z,33.71
2022-08-29T13:00:28.811Z,33.68
2022-08-29T13:02:59.434Z,33.84
2022-08-29T13:05:29.197Z,34.00
2022-08-29T13:08:00.152Z,33.99
2022-08-29T13:10:28.501Z,33.87
2022-08-29T13:13:05.710Z,33.88
2022-08-29T13:15:33.776Z,34.12
2022-08-29T13:18:01.857Z,34.17
2022-08-29T13:20:47.615Z,34.36
2022-08-29T13:23:25.323Z,34.51
2022-08-29T13:25:58.534Z,34.67
2022-08-29T13:28:34.199Z,34.71
2022-08-29T13:31:28.408Z,34.72
2022-08-29T13:34:21.027Z,34.72
2022-08-29T13:36:59.352Z,34.77
2022-08-29T13:39:37.088Z,34.80
2022-08-29T13:42:32.828Z,34.96
2022-08-29T13:45:09.122Z,35.11
2022-08-29T13:47:42.734Z,35.26
2022-08-29T13:50:14.964Z,35.33
2022-08-29T13:52:42.969Z,35.35
2022-08-29T13:55:12.435Z,35.60
2022-08-29T13:57:40.929Z,35.85
2022-08-29T14:00:12.272Z,35.94
2022-08-29T14:02:45.177Z,36.10
2022-08-29T14:05:14.447Z,36.25
2022-08-29T14:07:43.854Z,36.39
2022-08-29T14:10:14.254Z,36.47
2022-08-29T14:12:42.307Z,36.55
2022-08-29T14:15:11.563Z,36.67
2022-08-29T14:17:40.476Z,36.82
2022-08-29T14:20:10.063Z,36.85
2022-08-29T14:22:38.289Z,36.78
2022-08-29T14:25:07.424Z,36.85
2022-08-29T14:27:36.901Z,37.10
2022-08-29T14:30:05.772Z,37.24
2022-08-29T14:32:33.777Z,37.28
2022-08-29T14:35:01.856Z,37.35
2022-08-29T14:37:29.912Z,37.39
2022-08-29T14:39:58.138Z,37.31
2022-08-29T14:42:26.304Z,37.21
2022-08-29T14:44:55.730Z,37.14
2022-08-29T14:47:23.733Z,37.14
2022-08-29T14:49:51.726Z,37.21
2022-08-29T14:52:19.767Z,37.25
2022-08-29T14:54:47.943Z,37.25
2022-08-29T14:57:16.008Z,37.19
2022-08-29T14:59:44.151Z,37.12
2022-08-29T15:02:14.509Z,37.05
2022-08-29T15:04:42.579Z,36.99
2022-08-29T15:07:11.878Z,36.98
2022-08-29T15:09:40.282Z,36.97
2022-08-29T15:12:08.797Z,36.96
2022-08-29T15:14:37.125Z,36.97
2022-08-29T15:17:05.248Z,36.99
2022-08-29T15:20:31.167Z,37.07
2022-08-29T15:22:23.515Z,37.06
2022-08-29T15:24:52.150Z,37.16
2022-08-29T15:27:24.919Z,37.28
2022-08-29T15:29:55.240Z,37.38
2022-08-29T15:32:23.320Z,37.56
2022-08-29T15:34:52.724Z,37.65
2022-08-29T15:37:20.769Z,37.72
2022-08-29T15:39:49.928Z,37.94
2022-08-29T15:42:28.579Z,38.14
2022-08-29T15:44:56.637Z,38.36
2022-08-29T15:47:25.668Z,38.45
2022-08-29T15:49:55.840Z,38.48
2022-08-29T15:52:23.874Z,38.51
2022-08-29T15:54:52.214Z,38.53
2022-08-29T15:57:20.300Z,38.65
2022-08-29T15:59:58.126Z,38.78
2022-08-29T16:02:26.930Z,38.83
2022-08-29T16:04:57.372Z,38.86
2022-08-29T16:07:28.792Z,38.73
2022-08-29T16:09:57.814Z,38.61
2022-08-29T16:12:25.814Z,38.52
2022-08-29T16:15:01.964Z,38.34
2022-08-29T16:17:31.761Z,38.24
2022-08-29T16:20:01.488Z,38.22
2022-08-29T16:22:29.602Z,38.18
2022-08-29T16:24:58.543Z,38.17
2022-08-29T16:27:26.570Z,38.16
2022-08-29T16:29:54.927Z,38.18
2022-08-29T16:32:22.957Z,38.41
2022-08-29T16:34:51.250Z,38.51
2022-08-29T16:37:20.775Z,38.60
2022-08-29T16:39:48.830Z,38.60
2022-08-29T16:42:17.350Z,38.55
2022-08-29T16:44:45.425Z,38.58
2022-08-29T16:47:13.466Z,38.57
2022-08-29T16:49:41.435Z,38.28
2022-08-29T16:52:11.331Z,38.42
2022-08-29T16:54:40.981Z,38.31
2022-08-29T16:57:09.607Z,38.22
2022-08-29T16:59:37.720Z,38.25
2022-08-29T17:02:06.093Z,38.28
2022-08-29T17:04:34.180Z,38.30
2022-08-29T17:07:03.034Z,38.17
2022-08-29T17:09:29.979Z,37.98
2022-08-29T17:12:02.039Z,37.65
2022-08-29T17:14:29.238Z,36.92
2022-08-29T17:16:57.441Z,35.81
2022-08-29T17:19:25.529Z,34.70
2022-08-29T17:21:53.746Z,33.54
2022-08-29T17:24:21.920Z,32.51
2022-08-29T17:26:49.960Z,31.66
2022-08-29T17:29:19.725Z,30.96
2022-08-29T17:31:48.207Z,30.40
2022-08-29T17:34:16.702Z,29.97
2022-08-29T17:36:44.911Z,29.60
2022-08-29T17:39:13.203Z,29.39
2022-08-29T17:41:41.292Z,29.17
2022-08-29T17:44:13.012Z,29.02
2022-08-29T17:46:42.694Z,28.86
2022-08-29T17:49:11.474Z,28.70
2022-08-29T17:51:40.403Z,28.53
2022-08-29T17:54:12.620Z,28.39
2022-08-29T17:56:44.851Z,28.22
2022-08-29T17:59:13.182Z,28.13
2022-08-29T18:01:42.569Z,28.05
2022-08-29T18:04:10.872Z,27.96
2022-08-29T18:06:38.988Z,27.87
2022-08-29T18:09:07.279Z,27.83
2022-08-29T18:11:36.104Z,27.73
2022-08-29T18:14:04.266Z,27.62
2022-08-29T18:16:32.397Z,27.51
2022-08-29T18:19:01.824Z,27.40
2022-08-29T18:21:30.593Z,27.32
2022-08-29T18:23:58.813Z,27.22
2022-08-29T18:26:27.429Z,27.15
2022-08-29T18:28:55.576Z,27.07
2022-08-29T18:31:26.379Z,26.98
2022-08-29T18:34:00.475Z,26.91
2022-08-29T18:36:30.871Z,26.82
2022-08-29T18:38:58.991Z,26.74
2022-08-29T18:41:27.106Z,26.61
2022-08-29T18:43:55.137Z,26.58
2022-08-29T18:46:23.328Z,26.50
2022-08-29T18:48:51.638Z,26.41
2022-08-29T18:51:19.706Z,26.36
2022-08-29T18:53:49.232Z,26.28
2022-08-29T18:56:17.677Z,26.19
2022-08-29T18:58:45.692Z,26.13
2022-08-29T19:01:14.605Z,26.06
2022-08-29T19:03:43.771Z,25.94
2022-08-29T19:06:12.206Z,25.89
2022-08-29T19:08:40.176Z,25.83
2022-08-29T19:11:11.272Z,25.73
2022-08-29T19:13:39.715Z,25.65
2022-08-29T19:16:09.566Z,25.58
2022-08-29T19:18:37.859Z,25.52
2022-08-29T19:21:09.625Z,25.42
2022-08-29T19:23:38.918Z,25.35
2022-08-29T19:26:10.029Z,25.28
2022-08-29T19:31:11.136Z,25.18
2022-08-29T19:33:42.764Z,25.11
2022-08-29T19:36:10.947Z,25.06
2022-08-29T19:38:41.706Z,24.94
2022-08-29T19:41:11.242Z,24.99
2022-08-29T19:43:40.863Z,24.95
2022-08-29T19:46:11.180Z,24.91
2022-08-29T19:48:42.725Z,24.85
2022-08-29T19:51:11.109Z,24.76
2022-08-29T19:53:41.503Z,24.72
2022-08-29T19:56:11.212Z,24.68
2022-08-29T19:58:39.427Z,24.65
2022-08-29T20:01:08.773Z,24.58
2022-08-29T20:03:38.881Z,24.56
2022-08-29T20:06:07.797Z,24.52
2022-08-29T20:08:37.515Z,24.50
2022-08-29T20:11:06.566Z,24.45
2022-08-29T20:13:36.973Z,24.41
2022-08-29T20:16:10.163Z,24.37
2022-08-29T20:18:40.904Z,24.35
2022-08-29T20:21:08.927Z,24.32
2022-08-29T20:23:38.915Z,24.29
2022-08-29T20:26:12.257Z,24.26
2022-08-29T20:28:41.804Z,24.22
2022-08-29T20:31:09.926Z,24.19
2022-08-29T20:33:41.261Z,24.15
2022-08-29T20:36:27.033Z,24.11
2022-08-29T20:38:55.025Z,24.07
2022-08-29T20:41:22.967Z,24.02
2022-08-29T20:43:52.368Z,23.95
2022-08-29T20:46:20.454Z,23.92
2022-08-29T20:48:48.497Z,23.90
2022-08-29T20:51:17.044Z,23.84
2022-08-29T20:53:45.078Z,23.74
2022-08-29T20:56:13.089Z,23.81
2022-08-29T20:58:41.085Z,23.79
2022-08-29T21:01:10.609Z,23.76
2022-08-29T21:03:55.821Z,23.72
2022-08-29T21:06:23.848Z,23.68
2022-08-29T21:08:52.311Z,23.67
2022-08-29T21:11:20.816Z,23.64
2022-08-29T21:13:53.003Z,23.58
2022-08-29T21:16:23.110Z,23.57
2022-08-29T21:18:52.705Z,23.53
2022-08-29T21:21:24.518Z,23.51
2022-08-29T21:23:53.308Z,23.45
2022-08-29T21:26:21.325Z,23.47
2022-08-29T21:28:49.365Z,23.46
2022-08-29T21:31:18.435Z,23.44
2022-08-29T21:33:47.933Z,23.44
2022-08-29T21:36:18.674Z,23.41
2022-08-29T21:38:57.588Z,23.40
2022-08-29T21:41:38.139Z,23.39
2022-08-29T21:44:06.275Z,23.37
2022-08-29T21:46:35.536Z,23.35
2022-08-29T21:49:05.986Z,23.36
2022-08-29T21:51:34.543Z,23.35
2022-08-29T21:54:02.650Z,23.31
2022-08-29T21:56:31.675Z,23.31
2022-08-29T21:58:59.821Z,23.28
2022-08-29T22:01:29.945Z,23.27
2022-08-29T22:03:58.347Z,23.24
2022-08-29T22:06:28.254Z,23.21
2022-08-29T22:08:58.142Z,23.16
2022-08-29T22:11:37.731Z,23.14
2022-08-29T22:14:06.496Z,23.14
2022-08-29T22:16:33.761Z,23.12
2022-08-29T22:19:03.369Z,23.12
2022-08-29T22:21:33.914Z,23.10
2022-08-29T22:24:01.955Z,23.11
2022-08-29T22:26:30.093Z,23.08
2022-08-29T22:28:58.168Z,23.07
2022-08-29T22:31:26.213Z,23.05
2022-08-29T22:33:54.477Z,22.96
2022-08-29T22:36:22.630Z,23.01
2022-08-29T22:38:56.642Z,23.00
2022-08-29T22:41:24.845Z,22.97
2022-08-29T22:44:16.529Z,22.97
2022-08-29T22:46:42.922Z,22.96
2022-08-29T22:49:10.944Z,22.91
2022-08-29T22:51:38.957Z,22.88
2022-08-29T22:54:25.780Z,22.84
2022-08-29T22:56:54.475Z,22.83
2022-08-29T22:59:22.742Z,22.80
2022-08-29T23:01:50.783Z,22.77
2022-08-29T23:04:19.141Z,22.78
2022-08-29T23:06:47.169Z,22.76
2022-08-29T23:09:16.630Z,22.77
2022-08-29T23:11:44.734Z,22.74
2022-08-29T23:14:12.773Z,22.71
2022-08-29T23:16:40.848Z,22.71
2022-08-29T23:19:08.839Z,22.69
2022-08-29T23:21:39.643Z,22.64
2022-08-29T23:24:09.101Z,22.63
2022-08-29T23:26:38.611Z,22.60
2022-08-29T23:29:06.684Z,22.57
2022-08-29T23:31:34.739Z,22.54
2022-08-29T23:34:02.788Z,22.50
2022-08-29T23:36:30.868Z,22.46
2022-08-29T23:38:58.870Z,22.43
2022-08-29T23:41:26.900Z,22.39
2022-08-29T23:43:56.273Z,22.36
2022-08-29T23:46:24.318Z,22.35
2022-08-29T23:48:52.344Z,22.29
2022-08-29T23:51:20.588Z,22.29
2022-08-29T23:53:48.671Z,22.26
2022-08-29T23:56:17.698Z,22.23
2022-08-29T23:58:45.729Z,22.21
